createdAt,value
2023-03-06T00:01:09.680Z,2.73
2023-03-06T00:04:13.535Z,2.71
2023-03-06T00:07:18.833Z,2.71
2023-03-06T00:10:25.194Z,2.78
2023-03-06T00:13:30.711Z,2.78
2023-03-06T00:16:33.714Z,2.83
2023-03-06T00:19:36.660Z,2.80
2023-03-06T00:22:40.707Z,2.85
2023-03-06T00:25:44.972Z,2.79
2023-03-06T00:28:48.553Z,2.77
2023-03-06T00:31:53.345Z,2.83
2023-03-06T00:34:57.132Z,2.90
2023-03-06T00:37:59.954Z,2.88
2023-03-06T00:41:15.782Z,2.88
2023-03-06T00:44:18.528Z,2.94
2023-03-06T00:47:21.850Z,2.89
2023-03-06T00:50:24.676Z,2.89
2023-03-06T00:53:28.602Z,2.94
2023-03-06T00:56:31.179Z,2.91
2023-03-06T00:59:36.053Z,2.91
2023-03-06T01:02:39.029Z,2.87
2023-03-06T01:05:42.542Z,2.87
2023-03-06T01:08:45.872Z,2.90
2023-03-06T01:11:50.185Z,2.87
2023-03-06T01:14:52.804Z,2.95
2023-03-06T01:17:56.186Z,2.92
2023-03-06T01:20:59.174Z,2.99
2023-03-06T01:24:02.759Z,3.01
2023-03-06T01:27:06.664Z,3.01
2023-03-06T01:30:10.115Z,2.90
2023-03-06T01:33:16.073Z,2.81
2023-03-06T01:36:19.581Z,2.92
2023-03-06T01:39:22.310Z,2.94
2023-03-06T01:42:25.724Z,2.92
2023-03-06T01:45:28.364Z,2.91
2023-03-06T01:48:31.682Z,2.83
2023-03-06T01:52:15.535Z,2.91
2023-03-06T01:55:24.811Z,2.90
2023-03-06T01:58:27.478Z,2.89
2023-03-06T02:01:32.260Z,2.94
2023-03-06T02:04:37.412Z,2.92
2023-03-06T02:07:42.672Z,2.92
2023-03-06T02:11:14.030Z,2.98
2023-03-06T02:14:17.675Z,4.27
2023-03-06T02:17:22.568Z,3.22
2023-03-06T02:20:32.150Z,3.07
2023-03-06T02:23:53.913Z,3.02
2023-03-06T02:26:57.516Z,3.08
2023-03-06T02:30:13.295Z,2.89
2023-03-06T02:33:20.172Z,3.03
2023-03-06T02:36:23.432Z,3.03
2023-03-06T02:39:28.633Z,2.99
2023-03-06T02:42:32.827Z,2.99
2023-03-06T02:45:40.079Z,2.96
2023-03-06T02:48:43.021Z,2.97
2023-03-06T02:51:45.900Z,3.02
2023-03-06T02:54:49.898Z,3.03
2023-03-06T02:57:53.332Z,3.01
2023-03-06T03:00:57.234Z,3.13
2023-03-06T03:04:00.411Z,3.13
2023-03-06T03:07:03.974Z,3.14
2023-03-06T03:10:07.430Z,2.99
2023-03-06T03:13:10.333Z,3.03
2023-03-06T03:16:15.611Z,3.05
2023-03-06T03:19:20.933Z,3.14
2023-03-06T03:22:24.168Z,3.23
2023-03-06T03:25:27.561Z,3.31
2023-03-06T03:28:30.598Z,3.32
2023-03-06T03:31:33.879Z,3.30
2023-03-06T03:34:36.973Z,3.41
2023-03-06T03:37:40.312Z,3.18
2023-03-06T03:40:44.303Z,3.22
2023-03-06T03:43:48.643Z,3.22
2023-03-06T03:46:53.040Z,3.26
2023-03-06T03:49:56.491Z,3.27
2023-03-06T03:53:00.693Z,3.27
2023-03-06T03:56:04.423Z,3.30
2023-03-06T03:59:08.645Z,3.94
2023-03-06T04:02:12.906Z,4.94
2023-03-06T04:05:16.885Z,4.77
2023-03-06T04:08:19.805Z,5.15
2023-03-06T04:11:24.059Z,5.19
2023-03-06T04:14:26.968Z,5.07
2023-03-06T04:17:30.323Z,3.82
2023-03-06T04:20:33.524Z,3.56
2023-03-06T04:23:37.055Z,3.59
2023-03-06T04:26:41.278Z,3.38
2023-03-06T04:29:44.935Z,3.44
2023-03-06T04:32:47.664Z,3.53
2023-03-06T04:35:50.796Z,3.50
2023-03-06T04:38:54.588Z,3.56
2023-03-06T04:41:57.759Z,3.58
2023-03-06T04:45:01.680Z,3.58
2023-03-06T04:48:07.653Z,3.48
2023-03-06T04:51:12.774Z,3.39
2023-03-06T04:54:17.945Z,3.40
2023-03-06T04:57:24.693Z,3.42
2023-03-06T05:00:30.626Z,3.47
2023-03-06T05:03:36.480Z,3.52
2023-03-06T05:06:44.153Z,3.51
2023-03-06T05:09:46.863Z,3.51
2023-03-06T05:12:50.252Z,3.46
2023-03-06T05:15:54.100Z,3.51
2023-03-06T05:18:58.884Z,3.45
2023-03-06T05:22:02.894Z,3.45
2023-03-06T05:25:06.609Z,3.45
2023-03-06T05:28:09.394Z,3.55
2023-03-06T05:31:13.315Z,3.48
2023-03-06T05:34:17.474Z,3.48
2023-03-06T05:37:22.958Z,3.50
2023-03-06T05:40:25.997Z,3.40
2023-03-06T05:43:28.910Z,3.47
2023-03-06T05:46:32.021Z,3.50
2023-03-06T05:49:36.833Z,3.48
2023-03-06T05:52:40.144Z,3.44
2023-03-06T05:55:42.969Z,3.46
2023-03-06T05:58:46.625Z,3.52
2023-03-06T06:01:50.972Z,3.56
2023-03-06T06:04:54.265Z,3.51
2023-03-06T06:07:56.923Z,3.53
2023-03-06T06:11:00.029Z,3.62
2023-03-06T06:14:02.532Z,3.60
2023-03-06T06:17:05.483Z,3.59
2023-03-06T06:20:09.135Z,3.60
2023-03-06T06:23:12.702Z,3.62
2023-03-06T06:26:16.536Z,3.64
2023-03-06T06:29:20.457Z,3.69
2023-03-06T06:32:23.105Z,3.70
2023-03-06T06:35:27.603Z,3.72
2023-03-06T06:38:30.331Z,3.65
2023-03-06T06:41:53.108Z,3.68
2023-03-06T06:44:57.210Z,3.79
2023-03-06T06:48:00.237Z,4.01
2023-03-06T06:51:03.697Z,4.19
2023-03-06T06:54:07.101Z,4.23
2023-03-06T06:57:11.908Z,4.13
2023-03-06T07:00:16.051Z,4.02
2023-03-06T07:03:18.895Z,4.07
2023-03-06T07:06:22.336Z,4.01
2023-03-06T07:09:25.238Z,3.78
2023-03-06T07:12:34.958Z,3.91
2023-03-06T07:15:37.681Z,3.86
2023-03-06T07:18:40.774Z,3.97
2023-03-06T07:21:45.001Z,3.81
2023-03-06T07:24:48.103Z,3.81
2023-03-06T07:27:54.755Z,3.89
2023-03-06T07:30:57.640Z,4.07
2023-03-06T07:34:01.918Z,4.08
2023-03-06T07:37:11.726Z,4.19
2023-03-06T07:40:16.809Z,4.12
2023-03-06T07:43:19.886Z,4.11
2023-03-06T07:46:23.472Z,3.99
2023-03-06T07:49:27.302Z,3.79
2023-03-06T07:52:30.219Z,3.89
2023-03-06T07:55:33.273Z,4.01
2023-03-06T07:58:41.510Z,4.30
2023-03-06T08:01:45.540Z,4.23
2023-03-06T08:04:53.649Z,3.99
2023-03-06T08:07:56.322Z,3.83
2023-03-06T08:10:59.272Z,3.92
2023-03-06T08:14:01.854Z,4.19
2023-03-06T08:17:05.014Z,4.65
2023-03-06T08:20:10.404Z,4.63
2023-03-06T08:23:13.724Z,4.22
2023-03-06T08:26:24.885Z,4.42
2023-03-06T08:29:28.240Z,4.31
2023-03-06T08:32:31.614Z,4.15
2023-03-06T08:35:34.814Z,4.17
2023-03-06T08:38:37.574Z,3.96
2023-03-06T08:41:42.076Z,4.36
2023-03-06T08:44:44.969Z,4.83
2023-03-06T08:47:47.909Z,4.94
2023-03-06T08:50:51.592Z,4.78
2023-03-06T08:53:56.177Z,5.31
2023-03-06T08:56:59.460Z,5.46
2023-03-06T09:00:06.859Z,5.43
2023-03-06T09:03:11.093Z,5.88
2023-03-06T09:06:14.679Z,5.79
2023-03-06T09:09:17.900Z,6.30
2023-03-06T09:12:20.923Z,6.80
2023-03-06T09:15:24.887Z,7.41
2023-03-06T09:18:29.541Z,6.90
2023-03-06T09:21:32.927Z,7.30
2023-03-06T09:24:36.339Z,7.21
2023-03-06T09:27:39.223Z,7.25
2023-03-06T09:30:42.341Z,7.55
2023-03-06T09:33:45.330Z,7.15
2023-03-06T09:36:56.451Z,7.78
2023-03-06T09:39:59.574Z,7.49
2023-03-06T09:43:02.700Z,8.17
2023-03-06T09:46:36.601Z,7.85
2023-03-06T09:50:10.361Z,8.29
2023-03-06T09:53:47.576Z,7.50
2023-03-06T09:56:51.049Z,7.02
2023-03-06T09:59:57.082Z,7.72
2023-03-06T10:03:23.794Z,7.49
2023-03-06T10:06:30.980Z,7.23
2023-03-06T10:09:41.038Z,6.69
2023-03-06T10:13:12.780Z,7.10
2023-03-06T10:16:18.787Z,7.09
2023-03-06T10:19:34.220Z,6.93
2023-03-06T10:22:55.396Z,7.21
2023-03-06T10:26:40.006Z,7.40
2023-03-06T10:30:04.522Z,7.08
2023-03-06T10:33:41.443Z,7.17
2023-03-06T10:36:44.098Z,6.78
2023-03-06T10:39:54.722Z,6.94
2023-03-06T10:43:10.844Z,6.55
2023-03-06T10:46:27.833Z,6.75
2023-03-06T10:49:34.755Z,6.85
2023-03-06T10:52:38.041Z,7.04
2023-03-06T10:55:52.841Z,6.91
2023-03-06T10:59:13.544Z,7.04
2023-03-06T11:02:41.096Z,6.86
2023-03-06T11:06:07.236Z,6.53
2023-03-06T11:09:19.097Z,6.55
2023-03-06T11:12:34.017Z,6.77
2023-03-06T11:15:36.561Z,6.85
2023-03-06T11:18:42.910Z,7.18
2023-03-06T11:22:01.587Z,7.18
2023-03-06T11:25:13.624Z,7.10
2023-03-06T11:28:23.509Z,7.08
2023-03-06T11:31:33.917Z,7.08
2023-03-06T11:34:50.545Z,7.33
2023-03-06T11:38:04.969Z,7.75
2023-03-06T11:41:34.601Z,7.97
2023-03-06T11:44:53.974Z,8.18
2023-03-06T11:48:14.935Z,7.70
2023-03-06T11:51:20.035Z,7.65
2023-03-06T11:54:23.465Z,7.63
2023-03-06T11:57:39.850Z,7.83
2023-03-06T12:00:51.246Z,7.50
2023-03-06T12:04:13.768Z,7.42
2023-03-06T12:07:30.553Z,7.39
2023-03-06T12:10:51.873Z,7.28
2023-03-06T12:14:06.979Z,7.44
2023-03-06T12:17:21.113Z,7.31
2023-03-06T12:20:35.240Z,7.26
2023-03-06T12:23:53.484Z,7.28
2023-03-06T12:26:56.007Z,7.84
2023-03-06T12:30:09.910Z,7.76
2023-03-06T12:33:33.839Z,7.96
2023-03-06T12:37:04.575Z,8.14
2023-03-06T12:40:38.166Z,8.10
2023-03-06T12:43:53.561Z,8.04
2023-03-06T12:47:05.015Z,7.99
2023-03-06T12:50:38.461Z,7.85
2023-03-06T12:53:42.334Z,7.99
2023-03-06T12:56:45.993Z,8.04
2023-03-06T12:59:50.538Z,8.24
2023-03-06T13:03:16.740Z,8.21
2023-03-06T13:06:51.223Z,8.37
2023-03-06T13:10:10.398Z,8.21
2023-03-06T13:13:26.163Z,7.94
2023-03-06T13:16:34.714Z,8.09
2023-03-06T13:19:37.864Z,8.06
2023-03-06T13:22:49.875Z,8.09
2023-03-06T13:25:54.289Z,8.10
2023-03-06T13:28:58.208Z,8.21
2023-03-06T13:32:01.247Z,8.40
2023-03-06T13:35:30.562Z,8.42
2023-03-06T13:38:38.307Z,8.34
2023-03-06T13:41:58.325Z,8.17
2023-03-06T13:45:17.857Z,8.39
2023-03-06T13:48:43.612Z,8.33
2023-03-06T13:52:06.164Z,8.31
2023-03-06T13:55:15.158Z,8.22
2023-03-06T13:58:37.068Z,8.26
2023-03-06T14:02:39.010Z,8.44
2023-03-06T14:05:50.760Z,8.48
2023-03-06T14:09:29.055Z,8.41
2023-03-06T14:12:39.111Z,8.61
2023-03-06T14:15:46.218Z,8.54
2023-03-06T14:18:55.442Z,8.53
2023-03-06T14:21:59.970Z,8.43
2023-03-06T14:25:29.990Z,8.47
2023-03-06T14:28:34.837Z,8.09
2023-03-06T14:31:44.514Z,7.85
2023-03-06T14:34:48.745Z,7.96
2023-03-06T14:38:16.316Z,7.82
2023-03-06T14:41:36.033Z,7.76
2023-03-06T14:44:39.213Z,7.68
2023-03-06T14:47:42.109Z,7.73
2023-03-06T14:51:05.399Z,7.77
2023-03-06T14:54:15.716Z,7.54
2023-03-06T14:57:21.984Z,7.89
2023-03-06T15:00:31.799Z,7.84
2023-03-06T15:03:57.094Z,7.97
2023-03-06T15:07:00.346Z,8.00
2023-03-06T15:10:06.537Z,7.74
2023-03-06T15:13:18.800Z,7.66
2023-03-06T15:16:31.373Z,7.87
2023-03-06T15:19:40.396Z,7.96
2023-03-06T15:22:51.083Z,7.87
2023-03-06T15:26:05.693Z,7.84
2023-03-06T15:29:09.871Z,7.85
2023-03-06T15:32:33.745Z,7.96
2023-03-06T15:35:38.592Z,7.81
2023-03-06T15:38:45.474Z,7.73
2023-03-06T15:41:48.802Z,7.69
2023-03-06T15:44:55.172Z,7.58
2023-03-06T15:48:02.296Z,7.46
2023-03-06T15:51:06.448Z,7.29
2023-03-06T15:54:12.670Z,7.25
2023-03-06T15:57:29.791Z,7.13
2023-03-06T16:00:35.267Z,6.97
2023-03-06T16:03:38.715Z,6.93
2023-03-06T16:06:41.458Z,6.98
2023-03-06T16:09:45.557Z,7.01
2023-03-06T16:12:51.467Z,6.87
2023-03-06T16:15:56.872Z,6.96
2023-03-06T16:19:00.002Z,6.85
2023-03-06T16:22:04.447Z,6.81
2023-03-06T16:25:07.340Z,6.77
2023-03-06T16:28:15.672Z,6.65
2023-03-06T16:31:18.337Z,7.11
2023-03-06T16:34:21.874Z,6.82
2023-03-06T16:37:24.640Z,6.49
2023-03-06T16:40:38.424Z,6.50
2023-03-06T16:43:42.076Z,6.30
2023-03-06T16:46:47.521Z,6.22
2023-03-06T16:49:55.989Z,6.14
2023-03-06T16:53:03.023Z,5.89
2023-03-06T16:56:06.562Z,6.02
2023-03-06T16:59:12.093Z,6.02
2023-03-06T17:02:15.306Z,5.91
2023-03-06T17:05:19.603Z,5.94
2023-03-06T17:08:25.446Z,6.08
2023-03-06T17:11:31.199Z,5.87
2023-03-06T17:14:34.747Z,5.86
2023-03-06T17:17:44.481Z,5.95
2023-03-06T17:20:52.464Z,5.86
2023-03-06T17:24:01.731Z,5.84
2023-03-06T17:27:05.204Z,5.77
2023-03-06T17:30:10.270Z,5.75
2023-03-06T17:33:14.503Z,5.61
2023-03-06T17:36:19.353Z,5.71
2023-03-06T17:39:25.054Z,5.72
2023-03-06T17:42:29.959Z,5.80
2023-03-06T17:45:37.962Z,5.70
2023-03-06T17:48:42.452Z,5.47
2023-03-06T17:51:49.015Z,5.38
2023-03-06T17:55:00.191Z,5.44
2023-03-06T17:58:03.073Z,5.38
2023-03-06T18:01:15.483Z,5.22
2023-03-06T18:04:19.302Z,5.16
2023-03-06T18:07:27.570Z,5.10
2023-03-06T18:10:47.852Z,5.25
2023-03-06T18:13:59.827Z,5.19
2023-03-06T18:17:04.565Z,5.31
2023-03-06T18:20:08.053Z,5.26
2023-03-06T18:23:14.163Z,5.33
2023-03-06T18:26:21.804Z,5.18
2023-03-06T18:29:24.759Z,5.16
2023-03-06T18:32:28.343Z,5.28
2023-03-06T18:35:33.943Z,5.25
2023-03-06T18:38:41.561Z,5.20
2023-03-06T18:41:45.192Z,5.13
2023-03-06T18:44:48.866Z,5.17
2023-03-06T18:47:52.286Z,5.09
2023-03-06T18:50:57.481Z,5.03
2023-03-06T18:54:04.104Z,5.04
2023-03-06T18:57:07.638Z,4.96
2023-03-06T19:00:11.403Z,4.92
2023-03-06T19:03:14.866Z,4.86
2023-03-06T19:06:18.499Z,4.92
2023-03-06T19:09:22.192Z,4.84
2023-03-06T19:12:28.808Z,4.88
2023-03-06T19:15:35.951Z,4.96
2023-03-06T19:18:39.857Z,4.91
2023-03-06T19:21:43.128Z,4.85
2023-03-06T19:24:48.141Z,4.61
2023-03-06T19:27:51.101Z,4.43
2023-03-06T19:30:54.329Z,4.52
2023-03-06T19:33:57.955Z,4.58
2023-03-06T19:37:16.863Z,4.44
2023-03-06T19:40:34.509Z,4.44
2023-03-06T19:43:37.898Z,4.39
2023-03-06T19:46:41.013Z,4.40
2023-03-06T19:49:44.346Z,4.40
2023-03-06T19:52:48.308Z,4.37
2023-03-06T19:55:51.476Z,4.48
2023-03-06T19:58:55.406Z,4.45
2023-03-06T20:02:00.537Z,4.52
2023-03-06T20:05:04.731Z,4.96
2023-03-06T20:08:07.561Z,4.39
2023-03-06T20:11:18.818Z,4.53
2023-03-06T20:14:31.534Z,4.54
2023-03-06T20:17:35.774Z,4.46
2023-03-06T20:20:39.981Z,4.41
2023-03-06T20:23:44.102Z,4.39
2023-03-06T20:26:52.807Z,4.35
2023-03-06T20:29:55.769Z,4.40
2023-03-06T20:32:58.690Z,4.40
2023-03-06T20:36:02.398Z,4.57
2023-03-06T20:39:09.083Z,4.44
2023-03-06T20:42:12.435Z,4.32
2023-03-06T20:45:15.795Z,4.18
2023-03-06T20:48:18.820Z,4.28
2023-03-06T20:51:23.422Z,4.31
2023-03-06T20:54:26.584Z,4.25
2023-03-06T20:57:29.465Z,4.51
2023-03-06T21:00:32.817Z,4.41
2023-03-06T21:03:35.701Z,4.34
2023-03-06T21:06:39.532Z,4.21
2023-03-06T21:09:42.125Z,4.20
2023-03-06T21:12:45.130Z,4.25
2023-03-06T21:15:47.981Z,4.17
2023-03-06T21:18:51.521Z,4.33
2023-03-06T21:21:54.457Z,4.28
2023-03-06T21:24:57.388Z,4.30
2023-03-06T21:28:01.693Z,4.23
2023-03-06T21:31:08.696Z,4.07
2023-03-06T21:34:11.747Z,4.06
2023-03-06T21:37:15.768Z,4.21
2023-03-06T21:40:18.742Z,4.23
2023-03-06T21:43:21.917Z,4.28
2023-03-06T21:46:35.235Z,4.27
2023-03-06T21:49:38.276Z,4.16
2023-03-06T21:52:40.858Z,4.03
2023-03-06T21:55:44.047Z,4.15
2023-03-06T21:58:49.147Z,3.99
2023-03-06T22:01:52.125Z,4.09
2023-03-06T22:04:55.317Z,4.00
2023-03-06T22:07:59.324Z,3.91
2023-03-06T22:11:07.230Z,3.85
2023-03-06T22:14:09.732Z,3.75
2023-03-06T22:17:12.869Z,3.67
2023-03-06T22:20:15.753Z,3.67
2023-03-06T22:23:20.189Z,3.76
2023-03-06T22:26:23.750Z,3.88
2023-03-06T22:29:26.956Z,3.72
2023-03-06T22:32:29.690Z,3.69
2023-03-06T22:35:32.680Z,3.68
2023-03-06T22:38:40.508Z,3.66
2023-03-06T22:41:43.383Z,3.72
2023-03-06T22:44:45.960Z,3.61
2023-03-06T22:47:48.861Z,3.64
2023-03-06T22:50:51.427Z,3.57
2023-03-06T22:53:54.262Z,3.60
2023-03-06T22:56:56.846Z,3.59
2023-03-06T22:59:59.906Z,3.80
2023-03-06T23:03:02.675Z,3.67
2023-03-06T23:06:08.080Z,3.71
2023-03-06T23:09:23.272Z,3.67
2023-03-06T23:12:45.578Z,3.75
2023-03-06T23:16:07.988Z,3.68
2023-03-06T23:19:31.146Z,3.59
2023-03-06T23:22:52.248Z,3.78
2023-03-06T23:26:14.940Z,3.74
2023-03-06T23:29:19.604Z,3.80
2023-03-06T23:32:25.282Z,3.63
2023-03-06T23:35:33.280Z,3.75
2023-03-06T23:38:36.241Z,3.57
2023-03-06T23:41:39.478Z,3.56
2023-03-06T23:44:42.349Z,3.67
2023-03-06T23:47:45.199Z,3.63
2023-03-06T23:50:48.236Z,3.52
2023-03-06T23:53:58.756Z,3.64
2023-03-06T23:57:01.434Z,3.56
